»·PEaware :: SWA247 KGEG-KSEA

SWA247 :: KGEG-KSEA

FLIGHT INFORMATION

Flight Status: Arrived
Operator:
Southwest Airlines
More flights by this operator :: More flights under this callsign
Pilot: James J. (11409)
Aircraft: BOEING 737-800
(B738)
More flights by this aircraft type
Origin: KGEG Spokane Intl
United States
Destination: KSEA Seattle-Tacoma Intl
United States
More flights between these airports :: More routes between these airports
Route: GEG6 TEMPL GLASR1
File this flight plan on PilotEdge
Remarks: RMK / SIMBRIEF
Altitude:
(Current/Filed)
36,000ft
Speed:
(Current/Filed)
464kts
Departed: 14-Feb-21 05:31 PM
Arrived: 14-Feb-21 06:24 PM
Distance/Time
Traveled:
194nm/0:52
Distance/Time
To Go:
Arrived

Flight Plot

Page will automatically refresh every two minutes.

Flight plan parsing failed; only flown route is shown


Map Options




Map Legend


Flown Route
Filed Route
Departure Airport
Arrival Airport
Navaid (VOR, NDB)
Fix

Horizontal Profiles

Position Reports

Time Latitude Longitude Heading Altitude Ground
Speed
14-Feb-21 17:06 47.625197 -117.534230 331 2358ft 0kts
14-Feb-21 17:07 47.625197 -117.534230 331 2358ft 0kts
14-Feb-21 17:08 47.625197 -117.534230 331 2358ft 0kts
14-Feb-21 17:09 47.625197 -117.534230 331 2358ft 0kts
14-Feb-21 17:10 47.625197 -117.534230 331 2358ft 0kts
14-Feb-21 17:11 47.625197 -117.534230 331 2358ft 0kts
14-Feb-21 17:12 47.625197 -117.534230 331 2358ft 0kts
14-Feb-21 17:13 47.625197 -117.534230 331 2358ft 0kts
14-Feb-21 17:14 47.625197 -117.534230 331 2358ft 0kts
14-Feb-21 17:15 47.625197 -117.534230 331 2358ft 0kts
14-Feb-21 17:16 47.625197 -117.534230 331 2358ft 0kts
14-Feb-21 17:17 47.625197 -117.534230 331 2358ft 0kts
14-Feb-21 17:18 47.625197 -117.534230 331 2358ft 0kts
14-Feb-21 17:19 47.625197 -117.534230 331 2358ft 0kts
14-Feb-21 17:20 47.625197 -117.534230 331 2358ft 0kts
14-Feb-21 17:21 47.625197 -117.534230 331 2358ft 0kts
14-Feb-21 17:22 47.625197 -117.534230 331 2358ft 0kts
14-Feb-21 17:22 47.625049 -117.533898 259 2358ft 0kts
14-Feb-21 17:24 47.624943 -117.533995 212 2358ft 6kts
14-Feb-21 17:24 47.623471 -117.535238 203 2360ft 7kts
14-Feb-21 17:26 47.619591 -117.539812 225 2367ft 23kts
14-Feb-21 17:26 47.616700 -117.544132 225 2373ft 13kts
14-Feb-21 17:27 47.613339 -117.549181 228 2380ft 16kts
14-Feb-21 17:28 47.611695 -117.551592 199 2383ft 0kts
14-Feb-21 17:29 47.610558 -117.550549 131 2385ft 8kts
14-Feb-21 17:30 47.622215 -117.532063 44 2576ft 162kts
14-Feb-21 17:31 47.662807 -117.473715 43 4832ft 230kts
14-Feb-21 17:32 47.711179 -117.401740 43 6043ft 256kts
14-Feb-21 17:33 47.768654 -117.349648 338 6233ft 268kts
14-Feb-21 17:34 47.788122 -117.447231 270 10014ft 268kts
14-Feb-21 17:35 47.785736 -117.568698 268 12295ft 310kts
14-Feb-21 17:36 47.783018 -117.697172 268 14982ft 318kts
14-Feb-21 17:37 47.780056 -117.827605 268 15004ft 314kts
14-Feb-21 17:38 47.776941 -117.958767 268 16331ft 317kts
14-Feb-21 17:39 47.773675 -118.090444 269 18982ft 322kts
14-Feb-21 17:40 47.770218 -118.224618 270 21322ft 328kts
14-Feb-21 17:41 47.766556 -118.361604 271 23414ft 335kts
14-Feb-21 17:42 47.762686 -118.501208 272 25296ft 341kts
14-Feb-21 17:43 47.758578 -118.644024 273 26972ft 349kts
14-Feb-21 17:44 47.754047 -118.789314 272 28524ft 356kts
14-Feb-21 17:45 47.749242 -118.936353 274 30206ft 356kts
14-Feb-21 17:46 47.744321 -119.080571 274 32226ft 344kts
14-Feb-21 17:47 47.739436 -119.221312 276 33852ft 337kts
14-Feb-21 17:48 47.734535 -119.359653 276 35194ft 335kts
14-Feb-21 17:49 47.730845 -119.496991 281 36096ft 333kts
14-Feb-21 17:50 47.742089 -119.635571 283 36087ft 339kts
14-Feb-21 17:51 47.752980 -119.774995 283 36105ft 347kts
14-Feb-21 17:52 47.764161 -119.919091 283 36097ft 353kts
14-Feb-21 17:53 47.775139 -120.062908 283 34367ft 348kts
14-Feb-21 17:54 47.785880 -120.208512 279 27479ft 393kts
14-Feb-21 17:55 47.797344 -120.365272 278 21431ft 379kts
14-Feb-21 17:56 47.808332 -120.517391 277 17543ft 364kts
14-Feb-21 17:57 47.818736 -120.663965 275 13641ft 356kts
14-Feb-21 17:58 47.828656 -120.806945 275 12010ft 351kts
14-Feb-21 17:59 47.838357 -120.952826 275 12017ft 353kts
14-Feb-21 18:00 47.848094 -121.097739 274 11915ft 351kts
14-Feb-21 18:01 47.857435 -121.241044 273 11808ft 352kts
14-Feb-21 18:02 47.866638 -121.384555 273 11804ft 349kts
14-Feb-21 18:03 47.874563 -121.508631 273 11800ft 265kts
14-Feb-21 18:04 47.881184 -121.615672 273 11797ft 261kts
14-Feb-21 18:05 47.869290 -121.717886 240 11803ft 259kts
14-Feb-21 18:06 47.822341 -121.795909 240 11369ft 257kts
14-Feb-21 18:07 47.822633 -121.891941 275 10452ft 216kts
14-Feb-21 18:08 47.833302 -121.973179 275 8953ft 212kts
14-Feb-21 18:09 47.844612 -122.056624 275 7588ft 215kts
14-Feb-21 18:10 47.855896 -122.141538 275 6837ft 215kts
14-Feb-21 18:11 47.867357 -122.228974 275 6837ft 215kts
14-Feb-21 18:12 47.872016 -122.315548 238 6840ft 203kts
14-Feb-21 18:13 47.826168 -122.325433 145 6810ft 198kts
14-Feb-21 18:14 47.793459 -122.274942 161 5918ft 189kts
14-Feb-21 18:15 47.747640 -122.281089 198 5805ft 181kts
14-Feb-21 18:16 47.705412 -122.301047 188 4979ft 189kts
14-Feb-21 18:17 47.664153 -122.304900 181 4365ft 154kts
14-Feb-21 18:18 47.627252 -122.304946 179 3677ft 142kts
14-Feb-21 18:19 47.593652 -122.306545 181 3040ft 140kts
14-Feb-21 18:20 47.553060 -122.307009 179 2226ft 132kts
14-Feb-21 18:21 47.510134 -122.307439 179 1369ft 133kts
14-Feb-21 18:22 47.473784 -122.307616 178 659ft 132kts
14-Feb-21 18:23 47.450557 -122.307754 160 410ft 15kts
14-Feb-21 18:24 47.448963 -122.306190 179 404ft 17kts
14-Feb-21 18:25 47.444127 -122.306274 180 389ft 13kts
14-Feb-21 18:26 47.441763 -122.305121 98 382ft 5kts
14-Feb-21 18:27 47.441733 -122.304344 89 382ft 0kts
14-Feb-21 18:28 47.441733 -122.304344 89 382ft 0kts
14-Feb-21 18:29 47.441733 -122.304344 89 382ft 0kts

Navigation Log

Ident Type
Flight plan parsing failed, navigation log unavailable